Time;durP1;ratioP1;P1;durP2;ratioP2;P2;SDS_P1;SDS_P2;PMS_P1;PMS_P2;Temp;Humidity;BMP_temperature;BMP_pressure;BME280_temperature;BME280_humidity;BME280_pressure;Samples;Min_cycle;Max_cycle;Signal;HPM_P1;HPM_P2
2021/04/08 00:00:22;;;;;;;1.60;0.90;;;;;;;0.55;75.66;98825.84;1796816;79;21949;-55
2021/04/08 00:02:49;;;;;;;1.97;1.10;;;;;;;0.53;75.66;98831.62;1796138;77;21491;-54
2021/04/08 00:05:17;;;;;;;2.43;0.90;;;;;;;0.54;75.65;98836.47;1795731;79;21230;-54
2021/04/08 00:07:45;;;;;;;2.43;1.30;;;;;;;0.54;75.62;98839.12;1794683;79;21843;-55
2021/04/08 00:10:15;;;;;;;2.40;0.80;;;;;;;0.55;75.59;98835.56;1794519;79;21777;-53
2021/04/08 00:12:43;;;;;;;1.30;0.70;;;;;;;0.56;75.54;98834.22;1792480;79;21533;-55
2021/04/08 00:15:13;;;;;;;2.20;1.00;;;;;;;0.56;75.51;98839.96;1797938;79;21139;-55
2021/04/08 00:17:42;;;;;;;1.37;0.90;;;;;;;0.56;75.48;98843.48;1790616;78;21591;-55
2021/04/08 00:20:16;;;;;;;4.93;1.10;;;;;;;0.57;75.41;98842.58;1789512;79;21393;-55
2021/04/08 00:22:43;;;;;;;2.55;0.98;;;;;;;0.58;75.34;98840.36;1794051;79;21142;-55
2021/04/08 00:25:11;;;;;;;4.53;1.10;;;;;;;0.58;75.31;98848.30;1796498;78;21707;-54
2021/04/08 00:27:38;;;;;;;3.63;1.00;;;;;;;0.58;75.21;98843.00;1793864;79;21748;-53
2021/04/08 00:30:07;;;;;;;4.17;1.30;;;;;;;0.58;75.13;98858.02;1790425;79;21179;-55
2021/04/08 00:32:34;;;;;;;4.63;1.30;;;;;;;0.53;75.12;98857.23;1796787;78;21282;-55
2021/04/08 00:35:04;;;;;;;2.90;1.03;;;;;;;0.51;75.11;98856.42;1791486;79;21126;-55
2021/04/08 00:37:32;;;;;;;3.00;1.07;;;;;;;0.49;75.13;98857.77;1793309;79;21132;-55
2021/04/08 00:39:59;;;;;;;1.50;1.00;;;;;;;0.49;75.09;98863.06;1794673;78;21182;-55
2021/04/08 00:42:26;;;;;;;4.57;1.30;;;;;;;0.49;75.07;98876.75;1794229;78;21266;-55
2021/04/08 00:44:54;;;;;;;3.60;1.37;;;;;;;0.46;75.07;98876.36;1794571;79;21197;-55
2021/04/08 00:47:21;;;;;;;3.77;1.40;;;;;;;0.45;75.10;98874.61;1797282;79;21179;-55
2021/04/08 00:49:49;;;;;;;5.40;1.40;;;;;;;0.43;75.16;98880.84;1793940;79;21330;-55
2021/04/08 00:52:16;;;;;;;2.87;1.10;;;;;;;0.43;75.13;98884.80;1791149;78;21190;-55
2021/04/08 00:54:43;;;;;;;1.83;1.17;;;;;;;0.42;75.14;98891.03;1792701;79;21179;-53
2021/04/08 00:57:11;;;;;;;1.73;1.00;;;;;;;0.40;75.12;98887.54;1792911;79;22312;-52
2021/04/08 00:59:38;;;;;;;5.83;1.00;;;;;;;0.41;75.15;98890.61;1792535;78;21259;-55
2021/04/08 01:02:07;;;;;;;2.07;1.13;;;;;;;0.41;75.14;98891.94;1771360;79;21206;-53
2021/04/08 01:04:35;;;;;;;1.97;1.00;;;;;;;0.39;75.06;98897.25;1795225;78;21190;-54
2021/04/08 01:07:03;;;;;;;3.63;1.40;;;;;;;0.39;75.05;98898.58;1795028;79;21170;-54
2021/04/08 01:09:31;;;;;;;3.80;1.00;;;;;;;0.38;75.06;98900.35;1796882;78;21386;-54
2021/04/08 01:11:59;;;;;;;5.37;1.10;;;;;;;0.38;75.03;98902.13;1793685;78;21165;-54
2021/04/08 01:14:28;;;;;;;3.87;1.20;;;;;;;0.38;75.03;98903.45;1792529;78;21989;-54
2021/04/08 01:17:15;;;;;;;4.60;1.40;;;;;;;0.36;75.03;98901.28;1773569;79;21160;-54
2021/04/08 01:20:29;;;;;;;3.47;1.23;;;;;;;0.37;75.00;98905.67;1776648;79;21281;-54
2021/04/08 01:23:49;;;;;;;1.70;0.90;;;;;;;0.35;74.99;98916.29;1773621;79;21452;-54
2021/04/08 01:26:48;;;;;;;2.37;1.30;;;;;;;0.35;74.99;98915.41;1767084;79;21216;-53
2021/04/08 01:29:34;;;;;;;1.83;1.10;;;;;;;0.35;74.97;98916.74;1767271;79;21690;-53
2021/04/08 01:32:04;;;;;;;3.70;1.50;;;;;;;0.34;74.93;98920.32;1773558;79;21214;-53
2021/04/08 01:34:32;;;;;;;2.27;1.50;;;;;;;0.34;74.93;98926.94;1745828;79;21203;-54
2021/04/08 01:37:01;;;;;;;3.93;1.47;;;;;;;0.34;74.92;98928.27;1764152;79;21701;-51
2021/04/08 01:39:28;;;;;;;3.33;1.30;;;;;;;0.31;74.91;98931.83;1771097;79;21629;-54
2021/04/08 01:41:56;;;;;;;3.63;2.37;;;;;;;0.31;74.96;98933.61;1772591;79;21166;-54
2021/04/08 01:44:24;;;;;;;3.30;1.20;;;;;;;0.29;74.95;98934.08;1776049;79;21174;-53
2021/04/08 01:47:05;;;;;;;4.23;1.50;;;;;;;0.29;74.93;98939.38;1775593;79;21215;-54
2021/04/08 01:49:34;;;;;;;4.17;1.90;;;;;;;0.28;74.93;98945.12;1742641;79;21390;-53
2021/04/08 01:52:01;;;;;;;3.10;1.77;;;;;;;0.27;74.95;98943.81;1772117;79;21211;-54
2021/04/08 01:54:32;;;;;;;5.30;2.87;;;;;;;0.25;74.94;98953.59;1751869;79;21178;-54
2021/04/08 01:57:07;;;;;;;5.83;2.10;;;;;;;0.23;74.96;98956.26;1772660;79;21176;-54
2021/04/08 01:59:35;;;;;;;3.17;2.20;;;;;;;0.21;74.99;98962.48;1773146;79;21533;-52
2021/04/08 02:02:03;;;;;;;4.67;1.80;;;;;;;0.19;74.99;98958.53;1773889;79;22093;-54
2021/04/08 02:04:30;;;;;;;6.00;2.67;;;;;;;0.19;75.04;98964.27;1778709;79;21187;-55
2021/04/08 02:07:00;;;;;;;7.10;2.33;;;;;;;0.20;75.07;98969.98;1772414;79;21396;-52
2021/04/08 02:09:27;;;;;;;3.83;1.67;;;;;;;0.19;75.08;98973.09;1747182;79;21744;-53
2021/04/08 02:11:55;;;;;;;6.07;2.27;;;;;;;0.18;75.03;98971.34;1739676;80;21511;-52
2021/04/08 02:14:22;;;;;;;5.17;2.07;;;;;;;0.19;75.04;98980.15;1742134;80;21375;-52
2021/04/08 02:16:50;;;;;;;3.73;1.80;;;;;;;0.18;75.00;98987.66;1764306;79;21531;-53
2021/04/08 02:19:19;;;;;;;3.77;1.90;;;;;;;0.17;75.01;98987.27;1762887;79;21108;-51
2021/04/08 02:21:47;;;;;;;4.53;2.80;;;;;;;0.18;74.93;98986.34;1752549;80;21573;-52
2021/04/08 02:24:15;;;;;;;4.60;1.90;;;;;;;0.17;74.93;98987.27;1761682;79;21140;-55
2021/04/08 02:26:43;;;;;;;4.83;1.73;;;;;;;0.15;74.95;98988.62;1753428;80;22128;-55
2021/04/08 02:29:11;;;;;;;4.20;2.40;;;;;;;0.15;74.86;98987.30;1756474;80;21286;-54
2021/04/08 02:31:39;;;;;;;6.53;2.20;;;;;;;0.16;74.90;98996.11;1753176;80;22137;-54
2021/04/08 02:34:09;;;;;;;4.40;2.00;;;;;;;0.14;74.85;98999.23;1754944;80;21206;-55
2021/04/08 02:36:38;;;;;;;4.57;2.93;;;;;;;0.12;74.82;99003.22;1762409;79;21155;-55
2021/04/08 02:39:07;;;;;;;6.57;2.53;;;;;;;0.11;74.79;99012.05;1757951;80;21240;-52
2021/04/08 02:41:40;;;;;;;5.90;3.60;;;;;;;0.12;74.81;99010.28;1726139;81;21149;-55
2021/04/08 02:44:08;;;;;;;7.73;4.03;;;;;;;0.11;74.73;99009.41;1744806;80;21567;-53
2021/04/08 02:46:35;;;;;;;6.10;3.87;;;;;;;0.10;74.68;99016.05;1755214;80;21110;-53
2021/04/08 02:49:04;;;;;;;6.03;3.33;;;;;;;0.09;74.67;99019.59;1755815;80;21119;-54
2021/04/08 02:51:54;;;;;;;5.43;3.43;;;;;;;0.08;74.65;99017.87;1755766;80;21696;-55
2021/04/08 02:54:48;;;;;;;3.50;2.83;;;;;;;0.08;74.63;99019.19;1754046;80;21158;-53
2021/04/08 02:57:55;;;;;;;5.33;2.63;;;;;;;0.07;74.61;99025.37;1756369;80;21143;-53
2021/04/08 03:00:26;;;;;;;6.17;2.58;;;;;;;0.05;74.57;99035.11;1754713;80;21128;-54
2021/04/08 03:02:53;;;;;;;5.20;2.73;;;;;;;0.05;74.56;99049.66;1754052;80;21142;-54
2021/04/08 03:05:21;;;;;;;6.60;3.13;;;;;;;0.05;74.50;99048.34;1755106;80;21555;-53
2021/04/08 03:07:50;;;;;;;6.37;3.97;;;;;;;0.04;74.49;99055.41;1795561;78;21163;-55
2021/04/08 03:10:18;;;;;;;4.33;3.17;;;;;;;0.02;74.48;99058.52;1794016;78;21100;-54
2021/04/08 03:12:48;;;;;;;4.03;2.80;;;;;;;0.01;74.46;99063.38;1792646;78;21897;-54
2021/04/08 03:15:20;;;;;;;8.03;3.30;;;;;;;0.03;74.43;99066.01;1792264;78;21108;-55
2021/04/08 03:17:48;;;;;;;6.97;2.33;;;;;;;0.01;74.44;99060.73;1798819;79;21693;-53
2021/04/08 03:20:15;;;;;;;5.73;3.70;;;;;;;0.02;74.41;99064.26;1797748;79;21147;-56
2021/04/08 03:22:42;;;;;;;6.13;3.60;;;;;;;0.04;74.35;99066.44;1798110;79;21460;-54
2021/04/08 03:25:12;;;;;;;5.90;3.60;;;;;;;0.04;74.31;99073.92;1800575;79;21170;-54
2021/04/08 03:27:40;;;;;;;6.07;3.77;;;;;;;0.04;74.25;99073.05;1771805;79;21549;-53
2021/04/08 03:30:12;;;;;;;5.30;2.97;;;;;;;0.02;74.25;99073.07;1796945;79;21835;-54
2021/04/08 03:32:39;;;;;;;8.60;4.17;;;;;;;0.02;74.21;99077.04;1801661;79;21123;-53
2021/04/08 03:35:08;;;;;;;8.27;4.73;;;;;;;0.03;74.18;99084.53;1799567;79;21160;-55
2021/04/08 03:37:35;;;;;;;9.43;5.93;;;;;;;0.03;74.12;99084.08;1775071;78;21531;-53
2021/04/08 03:40:04;;;;;;;10.20;6.10;;;;;;;0.01;74.11;99081.91;1799570;79;21120;-54
2021/04/08 03:42:32;;;;;;;11.80;6.23;;;;;;;0.04;74.06;99092.89;1797312;79;21225;-54
2021/04/08 03:44:59;;;;;;;7.50;5.37;;;;;;;0.03;74.05;99093.80;1796825;79;21217;-54
2021/04/08 03:47:27;;;;;;;6.90;4.80;;;;;;;0.04;74.00;99091.58;1798656;79;21174;-53
2021/04/08 03:49:54;;;;;;;5.87;4.13;;;;;;;0.06;73.99;99101.24;1796337;79;21898;-53
2021/04/08 03:52:22;;;;;;;6.90;4.60;;;;;;;0.08;73.95;99103.88;1799653;79;21091;-54
2021/04/08 03:54:50;;;;;;;4.23;3.23;;;;;;;0.08;73.88;99106.06;1797535;79;23083;-55
2021/04/08 03:57:18;;;;;;;6.87;3.53;;;;;;;0.10;73.85;99104.25;1795442;79;21154;-54
2021/04/08 03:59:46;;;;;;;6.00;3.13;;;;;;;0.18;73.74;99110.73;1782454;79;21409;-54
2021/04/08 04:02:14;;;;;;;7.17;3.93;;;;;;;0.24;73.74;99118.14;1750129;80;21210;-53
2021/04/08 04:04:42;;;;;;;4.20;3.00;;;;;;;0.36;73.60;99115.72;1792535;79;21230;-52
2021/04/08 04:07:09;;;;;;;7.57;2.73;;;;;;;0.53;73.42;99117.61;1791091;78;22569;-55
2021/04/08 04:09:37;;;;;;;7.80;3.03;;;;;;;0.72;73.21;99124.33;1793887;79;21187;-53
2021/04/08 04:12:05;;;;;;;4.33;2.83;;;;;;;0.90;72.66;99119.13;1793658;79;21187;-55
2021/04/08 04:14:33;;;;;;;4.60;3.50;;;;;;;1.04;72.41;99117.07;1757523;79;21553;-53
2021/04/08 04:17:01;;;;;;;7.07;4.20;;;;;;;1.25;72.00;99127.70;1754668;79;21142;-53
2021/04/08 04:19:30;;;;;;;4.60;3.23;;;;;;;1.45;71.76;99123.28;1749898;79;21204;-53
2021/04/08 04:21:57;;;;;;;6.40;3.03;;;;;;;1.67;71.29;99127.68;1795212;79;21740;-55
2021/04/08 04:24:24;;;;;;;6.90;3.00;;;;;;;1.87;70.81;99126.30;1791873;79;21186;-53
2021/04/08 04:26:52;;;;;;;4.90;3.23;;;;;;;2.07;70.36;99142.22;1795612;79;21186;-54
2021/04/08 04:30:54;;;;;;;6.00;3.13;;;;;;;2.45;69.51;99136.86;1869323;75;28079;-55
2021/04/08 04:33:21;;;;;;;5.43;2.77;;;;;;;2.58;68.92;99147.58;1782215;78;21198;-55
2021/04/08 04:35:48;;;;;;;5.63;4.57;;;;;;;2.75;68.29;99140.95;1800012;77;21886;-54
2021/04/08 04:38:16;;;;;;;6.47;5.50;;;;;;;2.88;67.95;99140.59;1781492;78;21198;-57
2021/04/08 04:40:43;;;;;;;7.67;6.90;;;;;;;3.04;67.43;99143.25;1778881;78;21213;-56
2021/04/08 04:43:10;;;;;;;8.03;5.63;;;;;;;3.27;66.97;99150.58;1756675;79;21257;-57
2021/04/08 04:45:38;;;;;;;5.07;3.80;;;;;;;3.50;66.29;99145.91;1752715;79;21251;-57
2021/04/08 04:48:08;;;;;;;6.40;4.27;;;;;;;3.72;65.45;99151.03;1754645;79;21226;-57
2021/04/08 04:50:35;;;;;;;7.53;3.93;;;;;;;3.82;65.09;99146.76;1723798;79;21917;-59
2021/04/08 04:53:03;;;;;;;4.17;2.93;;;;;;;3.90;64.33;99147.39;1753040;79;21162;-59
2021/04/08 04:55:31;;;;;;;17.17;8.43;;;;;;;3.87;64.01;99148.80;1754772;79;21218;-59
2021/04/08 04:57:58;;;;;;;16.20;8.97;;;;;;;3.76;63.66;99150.00;1751350;79;21175;-58
2021/04/08 05:00:25;;;;;;;12.17;7.20;;;;;;;3.61;63.44;99146.94;1754752;79;22077;-59
2021/04/08 05:02:52;;;;;;;10.13;5.43;;;;;;;3.39;63.58;99152.90;1756119;78;21550;-59
2021/04/08 05:05:20;;;;;;;6.60;3.90;;;;;;;3.19;63.89;99155.69;1752740;79;21234;-57
2021/04/08 05:07:47;;;;;;;8.73;4.60;;;;;;;3.06;64.32;99162.28;1750249;79;21235;-58
2021/04/08 05:10:15;;;;;;;8.37;4.03;;;;;;;2.95;64.62;99158.58;1750673;79;21218;-58
2021/04/08 05:12:42;;;;;;;3.57;2.67;;;;;;;2.90;64.88;99157.35;1752413;79;21478;-59
2021/04/08 05:15:11;;;;;;;6.20;3.50;;;;;;;2.88;65.15;99167.63;1749909;79;22380;-58
2021/04/08 05:17:38;;;;;;;5.90;3.67;;;;;;;2.86;65.15;99166.34;1731119;80;21211;-59
2021/04/08 05:22:36;;;;;;;5.07;3.30;;;;;;;2.81;65.62;99166.89;1836393;76;26697;-60
2021/04/08 05:25:05;;;;;;;3.87;3.47;;;;;;;2.76;65.79;99178.13;1796497;78;21095;-59
2021/04/08 05:27:34;;;;;;;6.40;4.83;;;;;;;2.75;65.97;99181.69;1797870;78;21439;-64
2021/04/08 05:30:02;;;;;;;4.80;3.67;;;;;;;2.71;66.20;99177.37;1795653;78;21064;-60
2021/04/08 05:32:29;;;;;;;7.40;4.27;;;;;;;2.75;66.46;99176.38;1736192;80;21221;-61
2021/04/08 05:34:56;;;;;;;7.63;5.33;;;;;;;2.78;66.55;99179.41;1799180;78;21500;-61
2021/04/08 05:37:24;;;;;;;8.77;3.97;;;;;;;2.84;66.67;99183.23;1798724;78;21167;-62
2021/04/08 05:39:51;;;;;;;6.47;4.00;;;;;;;2.91;66.75;99186.14;1799624;78;21437;-61
2021/04/08 05:42:18;;;;;;;5.67;3.67;;;;;;;2.93;66.55;99193.17;1758824;80;21589;-63
2021/04/08 05:44:46;;;;;;;6.43;4.57;;;;;;;2.92;66.34;99194.53;1797774;78;21418;-63
2021/04/08 05:47:13;;;;;;;9.27;4.87;;;;;;;2.84;66.34;99196.07;1794796;78;21388;-62
2021/04/08 05:49:40;;;;;;;6.93;4.60;;;;;;;2.77;66.44;99195.81;1798588;78;21096;-64
2021/04/08 05:52:08;;;;;;;8.00;4.37;;;;;;;2.72;66.45;99195.08;1797219;78;21377;-63
2021/04/08 05:54:35;;;;;;;5.60;4.23;;;;;;;2.70;66.65;99196.02;1801110;78;21386;-64
2021/04/08 05:57:03;;;;;;;5.60;4.70;;;;;;;2.69;67.06;99187.17;1800076;78;21135;-63
2021/04/08 05:59:31;;;;;;;4.90;4.30;;;;;;;2.73;67.13;99194.13;1800884;78;21578;-60
2021/04/08 06:01:58;;;;;;;6.67;4.40;;;;;;;2.79;67.07;99192.67;1738272;80;21110;-61
2021/04/08 06:04:25;;;;;;;4.50;4.07;;;;;;;2.81;67.25;99194.81;1797245;78;21371;-62
2021/04/08 06:06:54;;;;;;;7.03;4.57;;;;;;;2.83;67.48;99200.97;1798072;78;21697;-59
2021/04/08 06:09:22;;;;;;;6.87;5.03;;;;;;;2.87;67.52;99208.42;1801426;78;21146;-60
2021/04/08 06:11:49;;;;;;;5.63;4.87;;;;;;;2.93;67.48;99216.22;1800259;78;21723;-60
2021/04/08 06:14:16;;;;;;;9.70;4.47;;;;;;;2.98;67.41;99214.30;1736641;80;21093;-60
2021/04/08 06:16:45;;;;;;;7.43;4.93;;;;;;;2.93;67.40;99229.06;1798327;78;21123;-57
2021/04/08 06:19:12;;;;;;;5.93;5.33;;;;;;;2.89;67.45;99227.38;1760338;80;21487;-59
2021/04/08 06:21:40;;;;;;;5.97;4.73;;;;;;;2.87;67.34;99223.91;1799119;78;21128;-61
2021/04/08 06:24:08;;;;;;;5.93;4.97;;;;;;;2.87;67.58;99229.23;1797464;78;21553;-64
2021/04/08 06:26:36;;;;;;;6.40;4.83;;;;;;;2.88;67.70;99232.30;1712630;81;21697;-59
2021/04/08 06:29:03;;;;;;;7.60;5.20;;;;;;;2.90;67.70;99230.45;1740572;80;21426;-61
2021/04/08 06:31:34;;;;;;;5.77;5.03;;;;;;;2.88;67.74;99242.06;1737477;81;21238;-61
2021/04/08 06:34:01;;;;;;;6.23;4.23;;;;;;;2.89;67.60;99239.83;1730701;82;21167;-62
2021/04/08 06:36:28;;;;;;;6.20;4.80;;;;;;;2.93;67.76;99237.48;1711340;81;21242;-59
2021/04/08 06:38:56;;;;;;;5.97;4.63;;;;;;;2.99;67.87;99241.31;1714248;81;21185;-61
2021/04/08 06:41:24;;;;;;;5.83;4.80;;;;;;;3.05;67.83;99249.16;1712005;81;21640;-60
2021/04/08 06:43:51;;;;;;;8.87;6.07;;;;;;;3.11;68.02;99252.09;1740276;81;21192;-61
2021/04/08 06:46:20;;;;;;;8.83;6.67;;;;;;;3.17;67.97;99263.89;1736603;81;21233;-61
2021/04/08 06:48:55;;;;;;;6.50;5.83;;;;;;;3.22;68.02;99267.33;1742013;81;21237;-62
2021/04/08 06:51:22;;;;;;;5.97;5.17;;;;;;;3.27;67.88;99273.39;1711922;81;21550;-60
2021/04/08 06:53:51;;;;;;;5.83;5.00;;;;;;;3.31;67.90;99277.27;1740918;81;21202;-59
2021/04/08 06:56:19;;;;;;;7.93;6.70;;;;;;;3.32;67.76;99285.64;1746415;80;21230;-61
2021/04/08 06:58:46;;;;;;;7.23;5.53;;;;;;;3.29;67.54;99288.86;1750977;80;21196;-61
2021/04/08 07:01:18;;;;;;;7.50;5.83;;;;;;;3.24;67.62;99282.31;1713062;81;21756;-60
2021/04/08 07:03:45;;;;;;;8.07;5.00;;;;;;;3.26;67.70;99292.46;1743480;81;21123;-61
2021/04/08 07:06:13;;;;;;;6.07;5.47;;;;;;;3.32;67.74;99289.63;1715016;81;21536;-62
2021/04/08 07:08:43;;;;;;;6.93;5.83;;;;;;;3.39;67.66;99293.02;1740305;81;21220;-61
2021/04/08 07:11:11;;;;;;;7.87;7.07;;;;;;;3.43;67.68;99298.20;1747940;80;21852;-61
2021/04/08 07:13:40;;;;;;;7.90;7.10;;;;;;;3.45;67.37;99288.86;1748354;80;21147;-60
2021/04/08 07:16:14;;;;;;;8.57;7.67;;;;;;;3.44;67.41;99291.10;1746825;80;21729;-61
2021/04/08 07:18:40;;;;;;;8.00;6.97;;;;;;;3.48;67.92;99295.90;1741947;81;21223;-60
2021/04/08 07:21:07;;;;;;;5.23;4.80;;;;;;;3.56;68.16;99291.24;1746257;80;21045;-60
2021/04/08 07:23:34;;;;;;;7.07;6.17;;;;;;;3.64;68.01;99297.23;1797931;78;21182;-61
2021/04/08 07:26:08;;;;;;;5.77;5.17;;;;;;;3.71;67.50;99301.00;1734190;80;21647;-61
2021/04/08 07:28:39;;;;;;;6.35;5.45;;;;;;;3.77;67.26;99299.95;1734142;81;21233;-60
2021/04/08 07:31:28;;;;;;;7.60;5.70;;;;;;;3.82;66.94;99308.70;1741056;80;21624;-61
2021/04/08 07:33:57;;;;;;;9.10;6.50;;;;;;;3.82;66.77;99311.36;1793188;78;21504;-59
2021/04/08 07:36:34;;;;;;;7.57;6.57;;;;;;;3.87;66.79;99316.54;1799159;78;21749;-59
2021/04/08 07:39:16;;;;;;;7.70;6.20;;;;;;;3.91;66.55;99322.21;1793168;78;21100;-59
2021/04/08 07:41:44;;;;;;;9.03;7.17;;;;;;;3.97;66.78;99331.34;1798259;78;21211;-59
2021/04/08 07:44:12;;;;;;;7.43;6.70;;;;;;;4.00;65.96;99329.91;1799983;78;22394;-58
2021/04/08 07:46:44;;;;;;;8.33;6.47;;;;;;;3.93;65.93;99325.67;1799236;78;21214;-58
2021/04/08 07:49:31;;;;;;;7.13;6.43;;;;;;;3.84;65.94;99332.59;1799062;77;21186;-59
2021/04/08 07:52:31;;;;;;;7.07;6.37;;;;;;;3.80;66.12;99327.37;1866929;75;26616;-59
2021/04/08 07:55:11;;;;;;;6.93;6.00;;;;;;;3.79;66.40;99331.41;1839521;76;21099;-60
2021/04/08 07:58:09;;;;;;;7.20;5.60;;;;;;;3.88;66.74;99335.59;1799102;78;21270;-59
2021/04/08 08:00:47;;;;;;;5.03;3.77;;;;;;;4.00;67.20;99337.89;1800233;78;21565;-60
2021/04/08 08:03:34;;;;;;;4.93;4.50;;;;;;;4.18;66.97;99334.71;1802123;78;21024;-60
2021/04/08 08:06:03;;;;;;;5.50;4.20;;;;;;;4.35;66.44;99331.55;1802768;78;21625;-61
2021/04/08 08:08:41;;;;;;;5.13;4.60;;;;;;;4.44;65.79;99333.48;1806996;78;21452;-60
2021/04/08 08:11:13;;;;;;;5.30;4.77;;;;;;;4.50;65.18;99340.45;1780745;78;21399;-61
2021/04/08 08:13:55;;;;;;;5.10;4.67;;;;;;;4.51;64.78;99343.03;1768396;79;21004;-59
2021/04/08 08:16:25;;;;;;;5.13;4.73;;;;;;;4.52;64.53;99343.91;1775320;78;21754;-60
2021/04/08 08:18:55;;;;;;;5.63;5.13;;;;;;;4.56;63.78;99343.79;1782354;79;21621;-60
2021/04/08 08:21:39;;;;;;;6.83;5.00;;;;;;;4.61;63.96;99337.43;1785705;79;21089;-60
2021/04/08 08:24:08;;;;;;;7.10;5.97;;;;;;;4.63;63.65;99340.47;1788144;79;22233;-62
2021/04/08 08:26:42;;;;;;;4.47;3.60;;;;;;;4.65;63.56;99340.42;1799863;78;21202;-59
2021/04/08 08:29:16;;;;;;;5.70;4.05;;;;;;;4.68;63.52;99344.34;1800135;78;21851;-61
2021/04/08 08:32:10;;;;;;;5.53;5.03;;;;;;;4.73;62.70;99343.27;1801206;78;21163;-60
2021/04/08 08:34:39;;;;;;;4.10;3.30;;;;;;;4.73;62.42;99344.61;1680175;84;22297;-61
2021/04/08 08:37:09;;;;;;;4.77;2.53;;;;;;;4.73;61.71;99346.39;1704811;82;21485;-60
2021/04/08 08:39:43;;;;;;;5.20;4.20;;;;;;;4.73;61.90;99343.27;1702534;82;21126;-59
2021/04/08 08:42:14;;;;;;;3.87;3.45;;;;;;;4.77;61.97;99354.23;1692825;82;21133;-60
2021/04/08 08:44:43;;;;;;;7.53;4.13;;;;;;;4.82;61.07;99354.11;1672288;84;21588;-60
2021/04/08 08:47:26;;;;;;;6.27;4.00;;;;;;;4.83;61.24;99361.19;1647475;85;21174;-59
2021/04/08 08:50:09;;;;;;;3.10;2.73;;;;;;;4.88;61.69;99355.23;1671164;84;22208;-60
2021/04/08 08:52:39;;;;;;;3.33;2.97;;;;;;;5.00;61.46;99349.98;1669586;84;21139;-61
2021/04/08 08:55:08;;;;;;;4.83;2.97;;;;;;;5.14;61.53;99355.73;1668222;84;21142;-59
2021/04/08 08:57:37;;;;;;;4.53;2.50;;;;;;;5.26;61.04;99369.57;1672446;84;21159;-59
2021/04/08 09:00:06;;;;;;;4.20;3.13;;;;;;;5.36;60.10;99370.61;1668730;84;21154;-60
2021/04/08 09:02:35;;;;;;;8.60;2.90;;;;;;;5.36;59.05;99358.59;1668645;84;21794;-60
2021/04/08 09:05:03;;;;;;;3.90;3.30;;;;;;;5.37;58.49;99361.19;1668787;84;21194;-61
2021/04/08 09:07:30;;;;;;;3.00;2.80;;;;;;;5.41;59.19;99375.31;1670402;84;22262;-59
2021/04/08 09:10:03;;;;;;;2.80;2.50;;;;;;;5.47;58.15;99369.30;1670349;84;21143;-60
2021/04/08 09:12:28;;;;;;;2.70;2.10;;;;;;;5.52;56.48;99370.50;1666565;84;22116;-61
2021/04/08 09:14:55;;;;;;;2.67;2.47;;;;;;;5.52;56.05;99374.05;1667653;84;22740;-60
2021/04/08 09:17:58;;;;;;;2.20;1.93;;;;;;;5.52;55.77;99375.37;1645883;84;21221;-60
2021/04/08 09:20:25;;;;;;;3.30;1.60;;;;;;;5.53;56.47;99385.59;1671491;84;21221;-60
2021/04/08 09:22:59;;;;;;;2.60;1.93;;;;;;;5.55;56.03;99386.39;1673521;84;22112;-60
2021/04/08 09:25:38;;;;;;;6.17;2.45;;;;;;;5.50;56.15;99381.69;1672709;84;21467;-60
2021/04/08 09:28:11;;;;;;;2.73;2.53;;;;;;;5.50;56.16;99396.37;1642445;85;21397;-60
2021/04/08 09:33:49;;;;;;;2.53;2.00;;;;;;;5.61;56.20;99378.20;1669538;84;21170;-60
2021/04/08 09:36:27;;;;;;;5.73;2.63;;;;;;;5.74;55.97;99379.50;1632947;86;21194;-60
2021/04/08 09:39:03;;;;;;;3.47;2.13;;;;;;;5.84;55.61;99385.41;1697358;82;21269;-58
2021/04/08 09:41:55;;;;;;;4.13;2.40;;;;;;;5.87;54.43;99383.98;1695291;82;21574;-60
2021/04/08 09:44:22;;;;;;;3.33;1.80;;;;;;;5.93;55.37;99383.78;1695505;82;21527;-61
2021/04/08 09:47:00;;;;;;;1.90;1.30;;;;;;;6.00;54.84;99387.98;1691176;82;21783;-60
2021/04/08 09:49:43;;;;;;;3.80;1.50;;;;;;;6.07;54.37;99389.03;1693862;82;21557;-60
2021/04/08 09:52:11;;;;;;;3.53;1.83;;;;;;;6.12;53.40;99382.21;1695167;82;21174;-59
2021/04/08 09:54:58;;;;;;;3.67;1.87;;;;;;;6.14;53.35;99400.83;1694347;82;21235;-60
2021/04/08 09:57:54;;;;;;;2.03;1.83;;;;;;;6.13;53.14;99387.06;1694789;82;21704;-59
2021/04/08 10:00:23;;;;;;;6.00;2.37;;;;;;;6.10;52.92;99382.72;1703929;81;21144;-60
2021/04/08 10:03:03;;;;;;;1.80;1.60;;;;;;;6.00;52.19;99389.31;1712970;82;21119;-60
2021/04/08 10:05:40;;;;;;;2.60;1.40;;;;;;;5.95;52.87;99385.48;1713146;82;21103;-60
2021/04/08 10:08:12;;;;;;;2.87;1.07;;;;;;;5.90;52.08;99383.87;1725688;81;21420;-60
2021/04/08 10:10:43;;;;;;;2.47;1.17;;;;;;;5.91;52.00;99388.30;1730823;81;21286;-60
2021/04/08 10:13:28;;;;;;;2.70;1.30;;;;;;;6.00;52.09;99378.63;1719162;82;21142;-60
2021/04/08 10:15:58;;;;;;;1.95;1.30;;;;;;;6.11;51.49;99376.45;1712640;82;20984;-59
2021/04/08 10:18:29;;;;;;;1.03;0.80;;;;;;;6.24;51.10;99379.08;1712117;82;21252;-59
2021/04/08 10:21:01;;;;;;;1.90;1.00;;;;;;;6.35;50.95;99381.36;1730324;81;21382;-60
2021/04/08 10:23:34;;;;;;;3.70;1.13;;;;;;;6.42;51.18;99389.55;1708807;82;21126;-61
2021/04/08 10:26:25;;;;;;;1.82;1.10;;;;;;;6.47;50.76;99386.23;1727485;81;21573;-60
2021/04/08 10:28:56;;;;;;;1.80;0.90;;;;;;;6.46;49.88;99396.55;1698908;81;21955;-61
2021/04/08 10:31:28;;;;;;;2.33;0.70;;;;;;;6.40;49.22;99389.61;1713053;82;21214;-60
2021/04/08 10:34:10;;;;;;;1.10;0.90;;;;;;;6.44;49.09;99387.70;1724776;81;21376;-60
2021/04/08 10:36:45;;;;;;;2.30;1.10;;;;;;;6.50;48.41;99390.14;1723681;81;21111;-60
2021/04/08 10:39:16;;;;;;;1.90;1.15;;;;;;;6.70;49.21;99391.61;1715467;82;21135;-61
2021/04/08 10:42:10;;;;;;;2.63;1.10;;;;;;;6.70;49.21;99391.61;1718924;81;21194;-60
2021/04/08 10:44:46;;;;;;;1.60;1.30;;;;;;;6.72;48.69;99396.41;1721516;81;21210;-59
2021/04/08 10:47:24;;;;;;;2.53;1.40;;;;;;;6.66;48.25;99389.09;1821063;75;22351;-58
2021/04/08 10:49:57;;;;;;;1.20;0.90;;;;;;;6.51;48.89;99399.91;1795746;77;21079;-61
2021/04/08 10:52:33;;;;;;;3.77;1.20;;;;;;;6.47;50.03;99399.60;1791483;77;21200;-60
2021/04/08 10:55:08;;;;;;;2.67;1.77;;;;;;;6.47;50.14;99400.94;1793240;77;21056;-59
2021/04/08 10:57:43;;;;;;;2.47;1.30;;;;;;;6.57;50.03;99401.01;1818694;75;22751;-60
2021/04/08 11:00:14;;;;;;;3.90;1.23;;;;;;;6.62;49.17;99395.04;1789494;77;20957;-59
2021/04/08 11:02:43;;;;;;;2.00;1.20;;;;;;;6.67;48.23;99386.36;1793815;77;21421;-60
2021/04/08 11:05:25;;;;;;;2.53;1.60;;;;;;;6.72;48.55;99394.23;1788784;77;20973;-59
2021/04/08 11:07:56;;;;;;;3.40;1.53;;;;;;;6.78;48.35;99392.19;1790195;76;21617;-59
2021/04/08 11:10:43;;;;;;;5.83;2.03;;;;;;;6.87;48.64;99396.77;1787175;77;21511;-59
2021/04/08 11:13:13;;;;;;;1.97;1.10;;;;;;;6.93;47.95;99391.17;1728948;80;21015;-60
2021/04/08 11:15:44;;;;;;;3.43;1.10;;;;;;;6.92;47.85;99394.31;1721508;80;21334;-58
2021/04/08 11:18:16;;;;;;;2.20;0.93;;;;;;;6.90;46.49;99406.87;1723752;80;22533;-60
2021/04/08 11:20:46;;;;;;;2.20;1.20;;;;;;;6.84;46.10;99403.98;1728153;80;22019;-60
2021/04/08 11:23:20;;;;;;;3.13;1.20;;;;;;;6.83;45.94;99410.25;1724646;80;21161;-59
2021/04/08 11:26:05;;;;;;;2.27;0.90;;;;;;;6.79;46.09;99409.98;1727523;80;21233;-60
2021/04/08 11:28:41;;;;;;;2.03;0.93;;;;;;;6.81;46.86;99408.56;1725237;80;21372;-60
2021/04/08 11:31:17;;;;;;;2.80;1.17;;;;;;;6.86;46.88;99407.94;1725738;80;21105;-60
2021/04/08 11:33:45;;;;;;;1.70;1.00;;;;;;;6.97;46.80;99404.85;1730453;80;21387;-59
2021/04/08 11:36:17;;;;;;;3.47;1.20;;;;;;;7.09;47.16;99395.86;1721355;80;21240;-60
2021/04/08 11:38:46;;;;;;;1.70;0.90;;;;;;;7.21;46.83;99389.16;1725499;80;21189;-60
2021/04/08 11:41:14;;;;;;;1.60;0.93;;;;;;;7.32;46.24;99396.27;1725657;80;21434;-60
2021/04/08 11:43:48;;;;;;;2.57;0.77;;;;;;;7.40;45.03;99404.85;1724287;80;21674;-60
2021/04/08 11:46:30;;;;;;;1.73;1.20;;;;;;;7.41;44.92;99419.98;1727100;80;21118;-60
2021/04/08 11:48:59;;;;;;;2.03;0.80;;;;;;;7.31;44.54;99417.30;1728741;80;21475;-58
2021/04/08 11:51:29;;;;;;;1.70;0.90;;;;;;;7.13;44.84;99420.71;1724649;80;21147;-60
2021/04/08 11:54:11;;;;;;;1.40;1.20;;;;;;;6.99;45.45;99423.91;1728350;80;22184;-60
2021/04/08 11:56:42;;;;;;;4.20;0.90;;;;;;;6.90;45.97;99433.62;1723574;80;21156;-60
2021/04/08 11:59:16;;;;;;;1.90;0.83;;;;;;;6.89;46.60;99420.33;1725726;80;21454;-58
2021/04/08 12:01:46;;;;;;;1.75;1.20;;;;;;;6.94;46.76;99425.03;1726386;80;21161;-60
2021/04/08 12:04:18;;;;;;;1.90;0.80;;;;;;;7.01;45.83;99421.17;1725711;80;21122;-60
2021/04/08 12:06:57;;;;;;;1.03;0.70;;;;;;;7.10;46.21;99419.48;1728895;80;21419;-59
2021/04/08 12:09:35;;;;;;;2.10;0.73;;;;;;;7.23;44.92;99427.42;1726231;80;21129;-59